Terminal Aerodrome Forecast
Issued by NWS Shreveport, LA

Current Version | Previous Version | Text Only | Print | Product List | Glossary On
Versions: 1 2 3 4 5 6 7 8 9 10 11 12 13 14 15 16 17 18 19 20 21
000
FTUS44 KSHV 290540
TAFSHV
TAF
KSHV 290540Z 2906/3006 12005KT P6SM SCT290
     FM291100 17005KT 5SM BR BKN015
     FM291500 20006KT P6SM BKN025
     FM291800 19008KT P6SM VCTS BKN040CB
      TEMPO 2920/2924 3SM TSRA OVC030CB
     FM300100 15005KT P6SM SCT050 BKN250=

USA.gov is the U.S. government's official web portal to all federal, state and local government web resources and services.